createdAt,value
2023-05-21T00:01:48.504Z,100809.53
2023-05-21T00:04:18.131Z,100806.28
2023-05-21T00:06:45.952Z,100810.03
2023-05-21T00:09:13.792Z,100807.59
2023-05-21T00:11:43.493Z,100801.44
2023-05-21T00:14:11.322Z,100789.59
2023-05-21T00:16:39.176Z,100801.38
2023-05-21T00:19:07.590Z,100792.75
2023-05-21T00:21:35.412Z,100794.06
2023-05-21T00:24:03.212Z,100798.03
2023-05-21T00:26:31.489Z,100802.81
2023-05-21T00:29:00.843Z,100796.88
2023-05-21T00:31:28.650Z,100797.66
2023-05-21T00:33:56.923Z,100796.25
2023-05-21T00:36:25.210Z,100796.72
2023-05-21T00:38:53.056Z,100790.28
2023-05-21T00:41:23.253Z,100784.59
2023-05-21T00:43:51.070Z,100787.72
2023-05-21T00:46:22.378Z,100780.69
2023-05-21T00:48:51.669Z,100797.53
2023-05-21T00:51:21.839Z,100795.94
2023-05-21T00:53:52.558Z,100792.69
2023-05-21T00:56:21.872Z,100791.56
2023-05-21T00:58:51.801Z,100787.47
2023-05-21T01:01:21.745Z,100780.44
2023-05-21T01:03:49.613Z,100788.47
2023-05-21T01:06:17.426Z,100781.75
2023-05-21T01:08:45.739Z,100791.84
2023-05-21T01:11:15.049Z,100779.97
2023-05-21T01:13:43.594Z,100785.84
2023-05-21T01:16:13.987Z,100791.66
2023-05-21T01:18:45.218Z,100783.06
2023-05-21T01:21:13.655Z,100789.94
2023-05-21T01:23:43.494Z,100786.69
2023-05-21T01:26:12.961Z,100789.25
2023-05-21T01:28:40.809Z,100795.13
2023-05-21T01:31:18.367Z,100787.09
2023-05-21T01:33:51.100Z,100783.81
2023-05-21T01:36:26.721Z,100779.78
2023-05-21T01:39:02.064Z,100783.72
2023-05-21T01:41:33.976Z,100783.63
2023-05-21T01:44:03.223Z,100785.75
2023-05-21T01:46:34.776Z,100777.97
2023-05-21T01:49:03.745Z,100782.19
2023-05-21T01:51:32.149Z,100774.41
2023-05-21T01:54:01.331Z,100770.09
2023-05-21T01:56:29.185Z,100765.00
2023-05-21T01:58:59.782Z,100760.09
2023-05-21T02:01:30.154Z,100756.06
2023-05-21T02:03:58.575Z,100761.88
2023-05-21T02:06:26.871Z,100767.47
2023-05-21T02:08:55.536Z,100773.06
2023-05-21T02:11:24.795Z,100769.78
2023-05-21T02:13:52.799Z,100772.72
2023-05-21T02:16:22.507Z,100766.00
2023-05-21T02:18:52.225Z,100766.47
2023-05-21T02:21:20.899Z,100770.84
2023-05-21T02:23:48.873Z,100759.59
2023-05-21T02:26:17.480Z,100769.69
2023-05-21T02:28:46.996Z,100761.38
2023-05-21T02:31:14.828Z,100751.13
2023-05-21T02:33:43.117Z,100760.22
2023-05-21T02:36:13.493Z,100765.22
2023-05-21T02:38:43.444Z,100756.63
2023-05-21T02:41:11.920Z,100758.72
2023-05-21T02:43:39.978Z,100755.47
2023-05-21T02:46:09.564Z,100755.47
2023-05-21T02:48:37.222Z,100747.56
2023-05-21T02:51:05.429Z,100758.72
2023-05-21T02:53:33.290Z,100746.88
2023-05-21T02:56:01.191Z,100745.75
2023-05-21T02:58:29.234Z,100742.72
2023-05-21T03:00:57.088Z,100748.31
2023-05-21T03:03:26.406Z,100747.69
2023-05-21T03:05:54.757Z,100751.66
2023-05-21T03:08:22.570Z,100749.19
2023-05-21T03:10:50.393Z,100742.72
2023-05-21T03:13:18.608Z,100746.66
2023-05-21T03:15:46.599Z,100748.97
2023-05-21T03:18:14.527Z,100748.41
2023-05-21T03:20:45.882Z,100748.66
2023-05-21T03:23:16.469Z,100752.59
2023-05-21T03:25:46.325Z,100754.91
2023-05-21T03:28:14.176Z,100755.66
2023-05-21T03:30:41.991Z,100755.28
2023-05-21T03:33:11.482Z,100748.44
2023-05-21T03:35:39.314Z,100753.91
2023-05-21T03:38:08.708Z,100757.84
2023-05-21T03:40:36.861Z,100754.25
2023-05-21T03:43:04.722Z,100749.28
2023-05-21T03:45:32.523Z,100754.81
2023-05-21T03:48:02.276Z,100753.69
2023-05-21T03:50:30.186Z,100746.00
2023-05-21T03:52:58.005Z,100748.56
2023-05-21T03:55:27.549Z,100746.13
2023-05-21T03:57:55.179Z,100743.66
2023-05-21T04:00:23.022Z,100746.44
2023-05-21T04:02:51.201Z,100754.09
2023-05-21T04:05:19.110Z,100754.09
2023-05-21T04:07:47.433Z,100752.47
2023-05-21T04:10:15.398Z,100753.38
2023-05-21T04:12:44.588Z,100748.47
2023-05-21T04:15:12.794Z,100747.31
2023-05-21T04:17:40.860Z,100751.38
2023-05-21T04:20:09.713Z,100752.06
2023-05-21T04:22:37.775Z,100751.63
2023-05-21T04:25:06.467Z,100760.88
2023-05-21T04:27:34.587Z,100763.91
2023-05-21T04:30:05.025Z,100764.13
2023-05-21T04:32:33.575Z,100763.31
2023-05-21T04:35:02.036Z,100771.66
2023-05-21T04:37:31.438Z,100772.03
2023-05-21T04:40:01.821Z,100769.81
2023-05-21T04:42:30.422Z,100767.13
2023-05-21T04:44:59.450Z,100775.94
2023-05-21T04:47:30.549Z,100773.06
2023-05-21T04:49:59.379Z,100765.28
2023-05-21T04:52:27.227Z,100763.47
2023-05-21T04:54:55.507Z,100757.06
2023-05-21T04:57:24.521Z,100759.28
2023-05-21T04:59:52.731Z,100768.94
2023-05-21T05:02:21.015Z,100756.03
2023-05-21T05:04:50.268Z,100769.38
2023-05-21T05:07:18.623Z,100766.84
2023-05-21T05:09:46.731Z,100769.28
2023-05-21T05:12:14.578Z,100764.75
2023-05-21T05:14:42.411Z,100767.91
2023-05-21T05:17:10.879Z,100765.22
2023-05-21T05:19:38.680Z,100768.47
2023-05-21T05:22:08.121Z,100769.28
2023-05-21T05:24:36.214Z,100773.94
2023-05-21T05:27:04.104Z,100776.16
2023-05-21T05:29:31.953Z,100771.63
2023-05-21T05:31:59.976Z,100771.38
2023-05-21T05:34:27.830Z,100758.88
2023-05-21T05:36:57.239Z,100764.88
2023-05-21T05:39:26.698Z,100768.28
2023-05-21T05:41:54.577Z,100763.03
2023-05-21T05:44:22.387Z,100764.81
2023-05-21T05:46:50.484Z,100776.16
2023-05-21T05:49:18.321Z,100776.84
2023-05-21T05:51:46.158Z,100779.50
2023-05-21T05:54:14.058Z,100773.13
2023-05-21T05:56:43.255Z,100776.41
2023-05-21T05:59:11.063Z,100774.53
2023-05-21T06:01:38.932Z,100772.44
2023-05-21T06:04:06.776Z,100772.44
2023-05-21T06:06:34.954Z,100757.59
2023-05-21T06:09:02.929Z,100757.28
2023-05-21T06:11:30.858Z,100761.69
2023-05-21T06:14:01.729Z,100771.06
2023-05-21T06:16:31.324Z,100770.13
2023-05-21T06:18:59.579Z,100768.63
2023-05-21T06:21:27.759Z,100761.31
2023-05-21T06:23:55.561Z,100760.28
2023-05-21T06:26:23.822Z,100765.72
2023-05-21T06:28:51.649Z,100774.69
2023-05-21T06:31:22.387Z,100776.41
2023-05-21T06:33:50.862Z,100777.25
2023-05-21T06:36:19.902Z,100780.84
2023-05-21T06:38:47.876Z,100782.31
2023-05-21T06:41:15.684Z,100774.81
2023-05-21T06:43:43.741Z,100775.72
2023-05-21T06:46:11.617Z,100774.78
2023-05-21T06:48:40.799Z,100776.78
2023-05-21T06:51:08.642Z,100780.94
2023-05-21T06:53:36.490Z,100781.63
2023-05-21T06:56:04.542Z,100778.94
2023-05-21T06:58:32.398Z,100766.97
2023-05-21T07:01:00.239Z,100770.13
2023-05-21T07:03:28.637Z,100769.22
2023-05-21T07:05:58.939Z,100770.09
2023-05-21T07:08:27.253Z,100767.09
2023-05-21T07:10:56.724Z,100766.50
2023-05-21T07:13:24.588Z,100770.09
2023-05-21T07:15:52.388Z,100762.84
2023-05-21T07:18:20.736Z,100761.16
2023-05-21T07:20:48.615Z,100755.78
2023-05-21T07:23:17.887Z,100744.13
2023-05-21T07:25:46.026Z,100748.50
2023-05-21T07:28:13.873Z,100745.44
2023-05-21T07:30:41.722Z,100748.53
2023-05-21T07:33:09.885Z,100748.03
2023-05-21T07:35:37.940Z,100751.44
2023-05-21T07:38:08.291Z,100752.19
2023-05-21T07:40:37.594Z,100752.06
2023-05-21T07:43:05.419Z,100748.91
2023-05-21T07:45:33.270Z,100750.03
2023-05-21T07:48:01.367Z,100750.19
2023-05-21T07:50:29.316Z,100743.78
2023-05-21T07:52:57.146Z,100748.22
2023-05-21T07:55:25.017Z,100741.38
2023-05-21T07:57:54.252Z,100748.88
2023-05-21T08:00:26.019Z,100758.06
2023-05-21T08:02:53.899Z,100754.03
2023-05-21T08:05:23.492Z,100746.69
2023-05-21T08:07:51.428Z,100747.63
2023-05-21T08:10:19.674Z,100746.97
2023-05-21T08:12:47.647Z,100746.19
2023-05-21T08:15:17.285Z,100745.16
2023-05-21T08:17:45.148Z,100743.19
2023-05-21T08:20:14.452Z,100741.19
2023-05-21T08:22:43.327Z,100738.06
2023-05-21T08:25:11.194Z,100737.91
2023-05-21T08:27:39.180Z,100730.25
2023-05-21T08:30:08.993Z,100731.38
2023-05-21T08:32:38.291Z,100733.69
2023-05-21T08:35:07.296Z,100724.63
2023-05-21T08:37:35.372Z,100729.53
2023-05-21T08:40:03.958Z,100723.38
2023-05-21T08:42:44.153Z,100726.38
2023-05-21T08:45:13.721Z,100726.31
2023-05-21T08:47:44.957Z,100722.94
2023-05-21T08:50:14.435Z,100716.03
2023-05-21T08:52:42.561Z,100712.63
2023-05-21T08:55:11.034Z,100726.28
2023-05-21T08:57:43.816Z,100722.88
2023-05-21T09:00:12.795Z,100717.53
2023-05-21T09:02:43.575Z,100722.28
2023-05-21T09:05:14.502Z,100719.13
2023-05-21T09:07:50.393Z,100719.78
2023-05-21T09:10:25.389Z,100723.28
2023-05-21T09:12:53.307Z,100713.34
2023-05-21T09:15:21.418Z,100720.91
2023-05-21T09:17:49.506Z,100715.53
2023-05-21T09:20:19.266Z,100715.84
2023-05-21T09:22:49.084Z,100715.03
2023-05-21T09:25:18.445Z,100715.06
2023-05-21T09:27:46.295Z,100711.63
2023-05-21T09:30:16.181Z,100713.03
2023-05-21T09:32:45.647Z,100710.06
2023-05-21T09:35:14.409Z,100717.06
2023-05-21T09:37:45.316Z,100708.19
2023-05-21T09:40:15.264Z,100706.59
2023-05-21T09:42:44.944Z,100707.97
2023-05-21T09:45:13.526Z,100692.69
2023-05-21T09:47:44.165Z,100702.38
2023-05-21T09:50:12.697Z,100694.03
2023-05-21T09:52:42.384Z,100692.13
2023-05-21T09:55:15.029Z,100694.81
2023-05-21T09:57:44.069Z,100683.53
2023-05-21T10:00:20.148Z,100680.56
2023-05-21T10:02:49.407Z,100682.47
2023-05-21T10:05:17.985Z,100680.31
2023-05-21T10:07:51.043Z,100683.25
2023-05-21T10:10:22.744Z,100681.41
2023-05-21T10:12:56.626Z,100668.47
2023-05-21T10:15:25.872Z,100665.78
2023-05-21T10:17:56.773Z,100667.09
2023-05-21T10:20:25.269Z,100664.41
2023-05-21T10:22:54.124Z,100664.97
2023-05-21T10:25:24.819Z,100651.19
2023-05-21T10:27:54.788Z,100650.94
2023-05-21T10:30:22.841Z,100653.34
2023-05-21T10:32:51.231Z,100647.94
2023-05-21T10:35:19.532Z,100644.19
2023-05-21T10:37:48.043Z,100645.28
2023-05-21T10:40:16.048Z,100641.50
2023-05-21T10:45:54.472Z,100635.03
2023-05-21T10:48:36.646Z,100632.94
2023-05-21T10:51:26.241Z,100627.25
2023-05-21T10:54:20.604Z,100628.53
2023-05-21T10:56:58.530Z,100627.69
2023-05-21T10:59:38.002Z,100626.41
2023-05-21T11:02:08.177Z,100620.47
2023-05-21T11:04:39.921Z,100617.97
2023-05-21T11:07:08.394Z,100609.09
2023-05-21T11:09:36.312Z,100619.06
2023-05-21T11:12:04.728Z,100615.81
2023-05-21T11:14:36.417Z,100619.25
2023-05-21T11:17:05.445Z,100623.53
2023-05-21T11:19:40.042Z,100626.19
2023-05-21T11:22:21.830Z,100626.75
2023-05-21T11:24:51.426Z,100640.22
2023-05-21T11:27:33.847Z,100638.09
2023-05-21T11:30:05.761Z,100638.66
2023-05-21T11:32:33.734Z,100636.00
2023-05-21T11:35:03.176Z,100638.69
2023-05-21T11:37:32.462Z,100635.53
2023-05-21T11:40:22.412Z,100627.44
2023-05-21T11:42:52.403Z,100628.50
2023-05-21T11:45:21.498Z,100622.03
2023-05-21T11:47:50.075Z,100621.50
2023-05-21T11:50:20.440Z,100624.44
2023-05-21T11:52:48.597Z,100617.72
2023-05-21T11:55:17.310Z,100618.16
2023-05-21T11:57:48.242Z,100624.84
2023-05-21T12:00:17.473Z,100617.53
2023-05-21T12:02:47.476Z,100623.44
2023-05-21T12:05:15.930Z,100615.38
2023-05-21T12:07:50.054Z,100611.56
2023-05-21T12:10:18.459Z,100612.38
2023-05-21T12:12:54.608Z,100607.25
2023-05-21T12:15:25.123Z,100611.50
2023-05-21T12:17:53.647Z,100603.88
2023-05-21T12:20:21.822Z,100601.19
2023-05-21T12:22:51.344Z,100599.81
2023-05-21T12:25:21.068Z,100609.03
2023-05-21T12:27:52.683Z,100610.88
2023-05-21T12:30:21.910Z,100609.22
2023-05-21T12:32:50.267Z,100603.22
2023-05-21T12:35:24.877Z,100601.38
2023-05-21T12:37:54.338Z,100605.88
2023-05-21T12:40:22.345Z,100594.53
2023-05-21T12:42:51.800Z,100594.44
2023-05-21T12:45:21.064Z,100598.97
2023-05-21T12:47:50.633Z,100590.78
2023-05-21T12:50:22.791Z,100599.19
2023-05-21T12:52:50.600Z,100592.16
2023-05-21T12:55:19.968Z,100593.78
2023-05-21T12:57:48.161Z,100605.16
2023-05-21T13:00:16.129Z,100585.34
2023-05-21T13:02:45.826Z,100590.94
2023-05-21T13:05:17.954Z,100586.66
2023-05-21T13:07:47.415Z,100591.53
2023-05-21T13:10:17.264Z,100586.66
2023-05-21T13:12:46.724Z,100580.94
2023-05-21T13:15:16.112Z,100584.38
2023-05-21T13:17:44.004Z,100576.78
2023-05-21T13:20:13.217Z,100579.97
2023-05-21T13:22:43.672Z,100579.97
2023-05-21T13:25:12.459Z,100569.69
2023-05-21T13:27:40.534Z,100568.75
2023-05-21T13:30:12.081Z,100568.59
2023-05-21T13:32:41.340Z,100563.06
2023-05-21T13:35:10.224Z,100567.09
2023-05-21T13:37:38.365Z,100560.34
2023-05-21T13:40:07.728Z,100557.03
2023-05-21T13:42:37.737Z,100553.28
2023-05-21T13:45:06.423Z,100551.00
2023-05-21T13:47:38.455Z,100550.94
2023-05-21T13:50:09.290Z,100542.72
2023-05-21T13:52:37.134Z,100552.19
2023-05-21T13:55:05.950Z,100546.16
2023-05-21T13:57:34.206Z,100547.75
2023-05-21T14:00:02.443Z,100549.78
2023-05-21T14:02:31.125Z,100549.72
2023-05-21T14:05:00.668Z,100545.69
2023-05-21T14:07:28.616Z,100551.09
2023-05-21T14:09:57.024Z,100550.75
2023-05-21T14:12:24.932Z,100545.84
2023-05-21T14:14:52.926Z,100540.59
2023-05-21T14:17:21.190Z,100545.84
2023-05-21T14:19:49.158Z,100547.91
2023-05-21T14:22:21.938Z,100546.38
2023-05-21T14:24:49.849Z,100542.84
2023-05-21T14:27:17.946Z,100540.91
2023-05-21T14:29:46.034Z,100541.25
2023-05-21T14:32:13.861Z,100543.59
2023-05-21T14:34:41.734Z,100543.88
2023-05-21T14:37:09.885Z,100548.72
2023-05-21T14:39:39.101Z,100547.97
2023-05-21T14:42:07.053Z,100541.72
2023-05-21T14:44:35.119Z,100542.72
2023-05-21T14:47:02.940Z,100535.84
2023-05-21T14:49:30.740Z,100534.09
2023-05-21T14:51:58.810Z,100528.69
2023-05-21T14:54:26.587Z,100534.25
2023-05-21T14:56:55.767Z,100542.63
2023-05-21T14:59:23.813Z,100540.94
2023-05-21T15:01:51.771Z,100540.22
2023-05-21T15:04:19.644Z,100535.25
2023-05-21T15:06:47.807Z,100534.00
2023-05-21T15:09:15.714Z,100543.56
2023-05-21T15:11:46.089Z,100530.72
2023-05-21T15:14:18.517Z,100536.47
2023-05-21T15:16:46.406Z,100533.16
2023-05-21T15:19:14.304Z,100531.00
2023-05-21T15:21:42.447Z,100541.22
2023-05-21T15:24:11.182Z,100538.09
2023-05-21T15:26:39.062Z,100540.78
2023-05-21T15:29:07.340Z,100542.53
2023-05-21T15:31:36.517Z,100540.38
2023-05-21T15:34:04.455Z,100549.88
2023-05-21T15:36:32.532Z,100545.25
2023-05-21T15:39:03.349Z,100541.38
2023-05-21T15:41:31.154Z,100550.38
2023-05-21T15:43:59.137Z,100539.69
2023-05-21T15:46:26.983Z,100537.38
2023-05-21T15:48:56.578Z,100541.09
2023-05-21T15:51:24.613Z,100535.03
2023-05-21T15:53:52.400Z,100530.19
2023-05-21T15:56:21.751Z,100531.78
2023-05-21T15:58:49.574Z,100521.22
2023-05-21T16:01:17.557Z,100520.91
2023-05-21T16:03:45.463Z,100519.38
2023-05-21T16:06:14.845Z,100524.16
2023-05-21T16:08:42.458Z,100531.88
2023-05-21T16:11:10.322Z,100526.06
2023-05-21T16:13:38.289Z,100532.75
2023-05-21T16:16:06.622Z,100533.94
2023-05-21T16:18:34.435Z,100532.25
2023-05-21T16:21:02.447Z,100526.06
2023-05-21T16:23:33.180Z,100529.63
2023-05-21T16:26:01.230Z,100535.16
2023-05-21T16:28:29.781Z,100534.16
2023-05-21T16:30:57.643Z,100530.34
2023-05-21T16:33:25.741Z,100529.91
2023-05-21T16:35:54.426Z,100527.84
2023-05-21T16:38:22.628Z,100515.34
2023-05-21T16:40:51.792Z,100522.81
2023-05-21T16:43:19.770Z,100519.00
2023-05-21T16:45:48.869Z,100511.75
2023-05-21T16:48:17.402Z,100515.25
2023-05-21T16:50:46.906Z,100515.81
2023-05-21T16:53:14.862Z,100507.38
2023-05-21T16:55:43.308Z,100508.91
2023-05-21T16:58:13.713Z,100503.66
2023-05-21T17:00:41.552Z,100504.69
2023-05-21T17:03:09.583Z,100502.59
2023-05-21T17:05:37.892Z,100506.19
2023-05-21T17:08:06.278Z,100509.91
2023-05-21T17:10:34.693Z,100516.78
2023-05-21T17:13:17.523Z,100508.81
2023-05-21T17:15:50.886Z,100501.19
2023-05-21T17:18:19.165Z,100502.19
2023-05-21T17:20:46.990Z,100511.63
2023-05-21T17:23:14.974Z,100510.09
2023-05-21T17:25:43.166Z,100502.28
2023-05-21T17:28:11.216Z,100501.97
2023-05-21T17:30:39.576Z,100509.22
2023-05-21T17:33:10.608Z,100509.44
2023-05-21T17:35:39.009Z,100508.91
2023-05-21T17:38:07.157Z,100501.22
2023-05-21T17:40:35.365Z,100506.34
2023-05-21T17:43:04.330Z,100512.63
2023-05-21T17:45:32.217Z,100512.13
2023-05-21T17:48:00.977Z,100512.13
2023-05-21T17:50:30.491Z,100514.84
2023-05-21T17:52:58.489Z,100511.34
2023-05-21T17:55:27.144Z,100508.91
2023-05-21T17:57:54.957Z,100514.06
2023-05-21T18:00:22.857Z,100521.53
2023-05-21T18:02:51.319Z,100524.72
2023-05-21T18:05:19.160Z,100523.69
2023-05-21T18:07:48.356Z,100520.28
2023-05-21T18:10:16.944Z,100528.16
2023-05-21T18:12:46.206Z,100533.88
2023-05-21T18:15:14.612Z,100534.31
2023-05-21T18:17:43.028Z,100538.56
2023-05-21T18:20:12.121Z,100546.81
2023-05-21T18:22:40.030Z,100548.84
2023-05-21T18:25:11.222Z,100546.09
2023-05-21T18:27:39.096Z,100545.66
2023-05-21T18:30:08.524Z,100554.38
2023-05-21T18:32:39.195Z,100554.09
2023-05-21T18:35:08.232Z,100549.78
2023-05-21T18:37:37.261Z,100552.31
2023-05-21T18:42:57.342Z,100552.28
2023-05-21T18:45:25.760Z,100555.59
2023-05-21T18:47:53.717Z,100552.94
2023-05-21T18:50:21.760Z,100561.13
2023-05-21T18:52:51.665Z,100555.28
2023-05-21T18:55:20.792Z,100558.28
2023-05-21T18:57:48.638Z,100551.38
2023-05-21T19:00:19.201Z,100562.16
2023-05-21T19:02:47.316Z,100557.88
2023-05-21T19:05:15.198Z,100562.75
2023-05-21T19:07:43.511Z,100560.72
2023-05-21T19:10:13.133Z,100569.19
2023-05-21T19:12:42.336Z,100561.91
2023-05-21T19:15:11.986Z,100568.94
2023-05-21T19:17:41.274Z,100581.66
2023-05-21T19:20:10.679Z,100585.66
2023-05-21T19:22:39.310Z,100578.44
2023-05-21T19:25:08.008Z,100579.50
2023-05-21T19:27:35.858Z,100584.16
2023-05-21T19:30:04.609Z,100578.50
2023-05-21T19:32:32.437Z,100581.50
2023-05-21T19:35:01.998Z,100573.94
2023-05-21T19:37:30.393Z,100572.03
2023-05-21T19:39:58.224Z,100572.84
2023-05-21T19:42:26.872Z,100577.75
2023-05-21T19:44:55.004Z,100576.66
2023-05-21T19:47:22.876Z,100584.75
2023-05-21T19:49:50.718Z,100571.56
2023-05-21T19:52:20.533Z,100593.13
2023-05-21T19:54:48.378Z,100589.09
2023-05-21T19:57:16.487Z,100596.91
2023-05-21T19:59:44.358Z,100598.84
2023-05-21T20:02:15.124Z,100600.22
2023-05-21T20:04:42.964Z,100601.03
2023-05-21T20:07:11.433Z,100613.19
2023-05-21T20:09:41.270Z,100603.50
2023-05-21T20:12:09.544Z,100602.19
2023-05-21T20:14:37.848Z,100609.72
2023-05-21T20:17:07.092Z,100612.16
2023-05-21T20:19:35.799Z,100615.13
2023-05-21T20:22:03.956Z,100610.31
2023-05-21T20:24:31.848Z,100621.34
2023-05-21T20:27:01.971Z,100614.66
2023-05-21T20:29:30.304Z,100623.81
2023-05-21T20:31:58.129Z,100617.34
2023-05-21T20:34:27.350Z,100617.63
2023-05-21T20:36:58.414Z,100617.88
2023-05-21T20:39:27.800Z,100616.00
2023-05-21T20:41:56.005Z,100618.44
2023-05-21T20:44:27.704Z,100616.00
2023-05-21T20:46:55.676Z,100624.88
2023-05-21T20:49:24.759Z,100626.50
2023-05-21T20:51:53.072Z,100627.56
2023-05-21T20:54:22.218Z,100622.75
2023-05-21T20:56:55.005Z,100625.97
2023-05-21T20:59:22.806Z,100618.44
2023-05-21T21:01:52.564Z,100617.63
2023-05-21T21:04:20.946Z,100614.13
2023-05-21T21:06:50.224Z,100613.59
2023-05-21T21:09:18.266Z,100613.84
2023-05-21T21:11:46.350Z,100613.84
2023-05-21T21:14:14.807Z,100613.56
2023-05-21T21:16:42.801Z,100610.88
2023-05-21T21:19:12.521Z,100605.50
2023-05-21T21:21:40.428Z,100614.88
2023-05-21T21:24:08.775Z,100617.03
2023-05-21T21:26:36.927Z,100615.72
2023-05-21T21:29:04.907Z,100614.06
2023-05-21T21:31:32.769Z,100626.19
2023-05-21T21:34:01.493Z,100626.97
2023-05-21T21:36:31.247Z,100627.78
2023-05-21T21:38:59.055Z,100629.09
2023-05-21T21:41:27.420Z,100625.59
2023-05-21T21:43:55.295Z,100625.34
2023-05-21T21:46:23.459Z,100626.16
2023-05-21T21:48:51.853Z,100622.09
2023-05-21T21:51:23.199Z,100618.06
2023-05-21T21:53:53.383Z,100621.84
2023-05-21T21:56:22.073Z,100619.16
2023-05-21T21:58:49.931Z,100622.09
2023-05-21T22:01:18.832Z,100616.97
2023-05-21T22:03:46.866Z,100610.81
2023-05-21T22:06:14.705Z,100616.69
2023-05-21T22:08:42.896Z,100627.44
2023-05-21T22:11:12.277Z,100627.44
2023-05-21T22:13:41.606Z,100622.63
2023-05-21T22:16:12.288Z,100626.34
2023-05-21T22:18:41.960Z,100625.81
2023-05-21T22:21:10.645Z,100626.91
2023-05-21T22:23:39.844Z,100631.19
2023-05-21T22:26:08.207Z,100625.28
2023-05-21T22:28:37.447Z,100621.22
2023-05-21T22:31:06.628Z,100618.75
2023-05-21T22:33:34.487Z,100628.41
2023-05-21T22:36:02.340Z,100623.00
2023-05-21T22:38:30.962Z,100624.59
2023-05-21T22:40:58.870Z,100627.25
2023-05-21T22:43:27.180Z,100622.69
2023-05-21T22:45:57.004Z,100627.75
2023-05-21T22:48:24.935Z,100625.59
2023-05-21T22:50:53.421Z,100629.06
2023-05-21T22:53:22.069Z,100631.22
2023-05-21T22:55:49.954Z,100628.50
2023-05-21T22:58:18.249Z,100626.84
2023-05-21T23:00:46.572Z,100629.25
2023-05-21T23:03:16.278Z,100622.53
2023-05-21T23:05:44.592Z,100630.28
2023-05-21T23:08:13.503Z,100629.19
2023-05-21T23:10:41.583Z,100633.47
2023-05-21T23:13:09.569Z,100634.53
2023-05-21T23:15:39.312Z,100635.31
2023-05-21T23:18:08.770Z,100631.50
2023-05-21T23:20:41.796Z,100630.72
2023-05-21T23:23:10.527Z,100625.31
2023-05-21T23:25:38.511Z,100633.28
2023-05-21T23:28:07.233Z,100626.28
2023-05-21T23:30:35.105Z,100619.84
2023-05-21T23:33:03.642Z,100625.97
2023-05-21T23:35:32.031Z,100628.66
2023-05-21T23:38:01.274Z,100622.44
2023-05-21T23:40:29.095Z,100630.72
2023-05-21T23:42:57.405Z,100630.44
2023-05-21T23:45:25.246Z,100628.53
2023-05-21T23:47:53.654Z,100623.13
2023-05-21T23:50:22.506Z,100633.03
2023-05-21T23:52:50.768Z,100625.75
2023-05-21T23:55:19.989Z,100627.06
2023-05-21T23:57:48.362Z,100629.97
